フランクフルト の空港の天気 - METARとTAF

フランクフルト国際空港 ( EDDF / FRA ) - ドイツ フランクフルト・アム・マイン
飛行場実況気象(Metar)
観測時間05/25 04:20 CEST (05/25 02:20 UTC)
風向・風速北北東 4m/s
視程6000m
天気現象
なし
気温16℃
湿度94%
気圧1017hPa
METAREDDF 250220Z 02007KT 6000 NSC 16/15 Q1017 NOSIG
過去の天気等 Google飛行場航空写真 Wunderground天気予報

過去48時間のMETAR

飛行場予報(TAF)
発表時間: 5/25 01:00 CEST (5/24 23:00 UTC)
予報対象時間: 25日2時 CEST ~ 26日8時 CEST
風向・風速東北東 2m/s
視程10km以上
なし
25日4時 CEST ~ 25日8時 CEST に 確率 30% で一時的に
全天の8割程度の雲 雲底高度 300m
26日4時 CEST ~ 26日8時 CEST に 確率 40% で一時的に
視程4,000m
天気現象もや
TAF EDDF 242300Z 2500/2606 06004KT CAVOK
PROB30 TEMPO 2502/2506 BKN010
PROB40 TEMPO 2602/2606 4000 BR